Portada
METAR-TAF:

METAR-TAF

Aeropuertos :

Aeropuerto Internacional de la Reina Alia

Amán-Queen Alia, Jordania

latitud: 31-40N, longitud: 035-58E, altitud: 721 m

Observación

El informe se hizo hace 10 minutos, a las 12:00 UTC
Viento 12 kt del oeste
Temperatura 23°C
Humedad 33%
Presión 1017 hPa
Visibilidad: 6000 m

METAR: OJAI 251200Z 28012KT 6000 NSC 23/06 Q1017 NOSIG

Hora: 15:10 (12:10 UTC)

Pronóstico

El informe se hizo hace 1 hora y 5 minutos, a las 11:05 UTC
Pronóstico válido del 25 a las 12 UTC al 26 a las 18 UTC
Viento 16 kt del oeste-noroeste
Visibilidad: 6000 m
Temporalmente
del 25 a las 18 UTC al 25 a las 24 UTC
Viento 12 kt del oeste
Visibilidad: 5000 m
Escasas nubes a una altura de 2500 ft
calima

TAF: OJAI 251105Z 2512/2618 29016KT 6000 NSC TEMPO 2518/2524 27012KT 5000 HZ FEW025

Observaciones y pronósticos meteorológicos de más de 4000 aeropuertos (mensajes METAR y TAF).

Los puntos amarillos y rojos representan las estaciones disponibles.

Ponga el ratón en el punto deseado para ver el nombre de la estación.

Haga clic para ver las observaciones y los pronósticos meteorológicos.

Para cambiar el mapa : haga clic en los botones verdes con una cruz de color negro para hacer un zoom, en el botón verde con un guión para alejar o en las flechas verdes para mapas adyacentes.


METAR-TAF: